Devils Lake, North Dakota
Current Conditions -  °F | °C
As of 5:55 AM on Thursday 27 Nov 2014 (Local Time) from KDVL Reporting Station
Clear Clear  
Wind Chill: -18°   Ceiling: Unl
Heat Index: -4°   Visibility: 10mi
Dew Point: -15°   Wind: 7mph
Humidity: 60%   Direction: 210°SSW
Pressure: 30.39"   Gusts: NA
Location:  48.11°N, 98.86°W
Report Text: KDVL 271155Z AUTO 21006KT 10SM CLR M20/M26 A3039 RMK AO1 11190 21240 57017
Loading
Personal Weather Stations






























Interactive Weather Map New forecast layout! Learn more

10-Day Weather Forecast

Advertisements
Track Severe Weather on mobile